createdAt,value
2022-09-12T00:00:51.625Z,15.52
2022-09-12T00:03:18.113Z,13.25
2022-09-12T00:05:46.608Z,16.25
2022-09-12T00:08:13.989Z,18.83
2022-09-12T00:10:42.648Z,16.52
2022-09-12T00:13:10.156Z,17.55
2022-09-12T00:15:43.548Z,16.42
2022-09-12T00:18:14.438Z,15.68
2022-09-12T00:20:45.259Z,20.13
2022-09-12T00:23:13.367Z,16.38
2022-09-12T00:25:48.617Z,18.40
2022-09-12T00:28:17.234Z,19.60
2022-09-12T00:30:45.135Z,17.83
2022-09-12T00:33:13.482Z,20.38
2022-09-12T00:35:53.435Z,19.80
2022-09-12T00:38:21.167Z,20.77
2022-09-12T00:40:48.704Z,18.13
2022-09-12T00:43:36.054Z,21.48
2022-09-12T00:46:27.762Z,21.52
2022-09-12T00:49:05.977Z,18.60
2022-09-12T00:51:35.707Z,20.02
2022-09-12T00:54:08.175Z,17.25
2022-09-12T00:56:36.623Z,21.23
2022-09-12T00:59:11.555Z,20.45
2022-09-12T01:01:40.781Z,20.80
2022-09-12T01:04:08.907Z,23.30
2022-09-12T01:06:43.225Z,22.35
2022-09-12T01:09:17.117Z,20.10
2022-09-12T01:11:46.927Z,22.65
2022-09-12T01:14:15.431Z,20.88
2022-09-12T01:16:42.221Z,22.48
2022-09-12T01:19:46.319Z,19.95
2022-09-12T01:22:35.652Z,25.27
2022-09-12T01:25:15.354Z,20.73
2022-09-12T01:28:18.793Z,18.90
2022-09-12T01:31:15.789Z,18.23
2022-09-12T01:36:57.514Z,16.25
2022-09-12T01:39:36.702Z,18.48
2022-09-12T01:42:25.948Z,15.98
2022-09-12T01:45:28.446Z,17.13
2022-09-12T01:48:16.187Z,16.98
2022-09-12T01:50:57.554Z,16.08
2022-09-12T01:53:29.483Z,15.35
2022-09-12T01:56:22.609Z,15.38
2022-09-12T01:59:21.490Z,15.25
2022-09-12T02:02:00.590Z,20.05
2022-09-12T02:04:34.310Z,20.77
2022-09-12T02:07:13.748Z,15.02
2022-09-12T02:09:52.897Z,15.88
2022-09-12T02:12:26.416Z,17.35
2022-09-12T02:14:59.983Z,15.95
2022-09-12T02:17:27.054Z,17.73
2022-09-12T02:19:59.273Z,19.55
2022-09-12T02:22:29.339Z,14.90
2022-09-12T02:24:59.394Z,15.18
2022-09-12T02:27:41.271Z,15.80
2022-09-12T02:30:09.205Z,16.17
2022-09-12T02:32:54.233Z,17.58
2022-09-12T02:35:32.940Z,17.05
2022-09-12T02:38:09.658Z,21.30
2022-09-12T02:43:04.921Z,23.13
2022-09-12T02:45:34.371Z,23.08
2022-09-12T02:48:17.504Z,27.17
2022-09-12T02:50:44.910Z,25.02
2022-09-12T02:53:11.514Z,26.10
2022-09-12T02:55:40.205Z,26.85
2022-09-12T02:58:11.213Z,27.10
2022-09-12T03:00:58.721Z,26.17
2022-09-12T03:03:43.670Z,23.65
2022-09-12T03:06:22.788Z,27.10
2022-09-12T03:09:15.956Z,27.17
2022-09-12T03:11:50.916Z,22.58
2022-09-12T03:14:26.476Z,25.40
2022-09-12T03:17:07.540Z,25.40
2022-09-12T03:19:36.970Z,26.92
2022-09-12T03:22:14.258Z,24.60
2022-09-12T03:24:52.866Z,24.52
2022-09-12T03:27:27.488Z,26.17
2022-09-12T03:29:55.810Z,27.55
2022-09-12T03:32:41.141Z,30.50
2022-09-12T03:35:07.941Z,23.45
2022-09-12T03:37:34.405Z,23.63
2022-09-12T03:40:01.108Z,24.80
2022-09-12T03:42:27.584Z,25.70
2022-09-12T03:44:54.128Z,24.48
2022-09-12T03:47:20.567Z,25.05
2022-09-12T03:49:47.021Z,27.55
2022-09-12T03:52:13.517Z,24.42
2022-09-12T03:54:39.976Z,31.17
2022-09-12T03:57:06.481Z,24.92
2022-09-12T03:59:32.953Z,30.40
2022-09-12T04:01:59.563Z,24.10
2022-09-12T04:04:26.071Z,27.58
2022-09-12T04:06:52.480Z,30.30
2022-09-12T04:09:19.182Z,23.50
2022-09-12T04:11:45.596Z,24.20
2022-09-12T04:14:12.196Z,23.10
2022-09-12T04:16:38.668Z,23.55
2022-09-12T04:19:05.156Z,22.02
2022-09-12T04:21:32.090Z,21.10
2022-09-12T04:26:24.897Z,20.92
2022-09-12T04:28:54.818Z,22.25
2022-09-12T04:31:22.721Z,21.80
2022-09-12T04:33:57.360Z,17.60
2022-09-12T04:36:24.679Z,18.02
2022-09-12T04:38:51.912Z,18.58
2022-09-12T04:41:20.925Z,17.05
2022-09-12T04:43:48.421Z,20.48
2022-09-12T04:46:17.338Z,20.33
2022-09-12T04:48:44.327Z,18.05
2022-09-12T04:51:14.142Z,13.48
2022-09-12T04:53:41.299Z,14.48
2022-09-12T04:56:10.106Z,13.35
2022-09-12T04:58:37.699Z,13.80
2022-09-12T05:01:06.364Z,16.30
2022-09-12T05:03:33.357Z,19.38
2022-09-12T05:08:28.445Z,28.83
2022-09-12T05:10:55.209Z,34.90
2022-09-12T05:13:22.198Z,30.90
2022-09-12T05:18:21.583Z,32.72
2022-09-12T05:20:47.982Z,37.05
2022-09-12T05:23:14.414Z,38.70
2022-09-12T05:25:48.539Z,34.95
2022-09-12T05:28:14.963Z,31.92
2022-09-12T05:30:41.398Z,34.20
2022-09-12T05:33:07.852Z,34.92
2022-09-12T05:35:34.392Z,30.42
2022-09-12T05:38:00.823Z,32.53
2022-09-12T05:40:27.214Z,39.30
2022-09-12T05:42:53.789Z,31.95
2022-09-12T05:45:21.169Z,41.08
2022-09-12T05:47:47.670Z,34.92
2022-09-12T05:50:14.216Z,33.28
2022-09-12T05:52:40.952Z,33.92
2022-09-12T05:55:07.801Z,31.80
2022-09-12T06:00:01.500Z,33.83
2022-09-12T06:02:28.008Z,33.67
2022-09-12T06:04:54.452Z,34.10
2022-09-12T06:07:20.886Z,35.65
2022-09-12T06:09:47.322Z,34.13
2022-09-12T06:12:13.774Z,34.22
2022-09-12T06:14:40.221Z,40.50
2022-09-12T06:17:06.657Z,31.05
2022-09-12T06:19:33.114Z,33.38
2022-09-12T06:21:59.546Z,32.70
2022-09-12T06:24:26.065Z,32.42
2022-09-12T06:26:55.419Z,35.67
2022-09-12T06:29:21.956Z,33.90
2022-09-12T06:31:48.652Z,29.73
2022-09-12T06:34:16.222Z,33.50
2022-09-12T06:36:46.398Z,31.52
2022-09-12T06:39:21.073Z,33.72
2022-09-12T06:41:49.434Z,32.42
2022-09-12T06:44:19.562Z,30.08
2022-09-12T06:46:46.226Z,32.97
2022-09-12T06:49:12.827Z,33.17
2022-09-12T06:51:39.378Z,31.60
2022-09-12T06:54:05.811Z,27.13
2022-09-12T06:56:32.301Z,27.65
2022-09-12T06:58:59.935Z,27.40
2022-09-12T07:01:29.444Z,31.55
2022-09-12T07:03:58.797Z,27.25
2022-09-12T07:06:31.710Z,30.52
2022-09-12T07:08:59.692Z,27.90
2022-09-12T07:11:34.324Z,29.95
2022-09-12T07:14:03.097Z,28.75
2022-09-12T07:16:30.361Z,26.10
2022-09-12T07:18:59.655Z,28.40
2022-09-12T07:21:27.226Z,31.40
2022-09-12T07:23:55.356Z,29.35
2022-09-12T07:26:21.899Z,30.88
2022-09-12T07:29:07.889Z,28.90
2022-09-12T07:31:39.569Z,29.17
2022-09-12T07:34:06.845Z,26.98
2022-09-12T07:36:34.380Z,28.35
2022-09-12T07:39:01.622Z,29.58
2022-09-12T07:41:30.278Z,31.15
2022-09-12T07:43:59.237Z,28.98
2022-09-12T07:46:27.126Z,30.50
2022-09-12T07:48:55.113Z,32.75
2022-09-12T07:51:22.771Z,32.60
2022-09-12T07:53:49.350Z,27.75
2022-09-12T07:56:16.474Z,29.83
2022-09-12T07:58:44.008Z,24.77
2022-09-12T08:01:14.375Z,23.10
2022-09-12T08:03:42.620Z,22.10
2022-09-12T08:06:10.618Z,20.00
2022-09-12T08:08:38.690Z,17.00
2022-09-12T08:11:08.453Z,17.30
2022-09-12T08:13:37.023Z,17.65
2022-09-12T08:16:06.533Z,15.18
2022-09-12T08:18:33.273Z,16.20
2022-09-12T08:21:02.176Z,17.77
2022-09-12T08:23:29.324Z,16.80
2022-09-12T08:25:57.426Z,19.55
2022-09-12T08:28:25.580Z,14.32
2022-09-12T08:30:53.594Z,16.30
2022-09-12T08:33:20.787Z,15.32
2022-09-12T08:35:47.561Z,16.52
2022-09-12T08:38:13.974Z,14.63
2022-09-12T08:41:00.147Z,11.05
2022-09-12T08:43:38.501Z,14.50
2022-09-12T08:46:13.871Z,13.52
2022-09-12T08:48:42.391Z,12.45
2022-09-12T08:51:13.151Z,14.18
2022-09-12T08:53:41.261Z,11.73
2022-09-12T08:56:11.691Z,12.88
2022-09-12T08:58:43.266Z,10.30
2022-09-12T09:01:32.988Z,10.07
2022-09-12T09:04:18.165Z,9.93
2022-09-12T09:07:06.585Z,12.70
2022-09-12T09:09:59.194Z,9.35
2022-09-12T09:12:37.538Z,7.65
2022-09-12T09:15:35.994Z,6.35
2022-09-12T09:18:14.253Z,8.43
2022-09-12T09:20:52.082Z,5.43
2022-09-12T09:23:30.981Z,6.40
2022-09-12T09:26:26.655Z,6.05
2022-09-12T09:28:57.895Z,5.72
2022-09-12T09:31:26.543Z,6.03
2022-09-12T09:33:55.505Z,4.85
2022-09-12T09:36:25.135Z,5.25
2022-09-12T09:39:17.429Z,6.10
2022-09-12T09:42:05.461Z,6.68
2022-09-12T09:44:32.301Z,4.95
2022-09-12T09:49:30.251Z,4.28
2022-09-12T09:52:00.119Z,4.72
2022-09-12T09:54:57.409Z,4.32
2022-09-12T09:57:39.388Z,4.30
2022-09-12T10:00:34.985Z,2.40
2022-09-12T10:03:14.889Z,2.50
2022-09-12T10:05:57.184Z,4.20
2022-09-12T10:08:26.811Z,3.17
2022-09-12T10:11:01.974Z,3.75
2022-09-12T10:13:28.454Z,4.93
2022-09-12T10:16:02.163Z,3.20
2022-09-12T10:18:42.541Z,3.85
2022-09-12T10:21:16.525Z,4.20
2022-09-12T10:23:44.011Z,3.05
2022-09-12T10:26:14.304Z,3.60
2022-09-12T10:28:48.028Z,4.20
2022-09-12T10:31:24.176Z,3.67
2022-09-12T10:33:53.993Z,3.10
2022-09-12T10:36:20.980Z,3.20
2022-09-12T10:38:54.844Z,3.22
2022-09-12T10:41:22.089Z,2.65
2022-09-12T10:43:49.123Z,3.90
2022-09-12T10:46:18.430Z,4.80
2022-09-12T10:48:47.172Z,5.20
2022-09-12T10:51:28.712Z,3.97
2022-09-12T10:53:57.538Z,4.47
2022-09-12T10:56:30.335Z,2.97
2022-09-12T10:59:20.213Z,3.53
2022-09-12T11:01:58.429Z,3.00
2022-09-12T11:05:02.383Z,3.08
2022-09-12T11:07:48.408Z,5.38
2022-09-12T11:10:44.458Z,3.10
2022-09-12T11:13:48.744Z,3.47
2022-09-12T11:16:36.298Z,6.10
2022-09-12T11:19:15.741Z,3.40
2022-09-12T11:22:13.186Z,4.35
2022-09-12T11:25:22.375Z,6.57
2022-09-12T11:28:06.933Z,4.45
2022-09-12T11:30:47.799Z,3.55
2022-09-12T11:33:43.178Z,4.35
2022-09-12T11:36:45.767Z,3.22
2022-09-12T11:39:17.300Z,3.10
2022-09-12T11:42:00.163Z,3.90
2022-09-12T11:44:38.704Z,3.90
2022-09-12T11:47:11.685Z,3.55
2022-09-12T11:49:43.835Z,3.58
2022-09-12T11:52:19.910Z,4.55
2022-09-12T11:55:04.983Z,2.55
2022-09-12T11:57:36.925Z,3.55
2022-09-12T12:00:12.624Z,4.03
2022-09-12T12:02:41.814Z,2.78
2022-09-12T12:05:43.106Z,2.33
2022-09-12T12:08:11.032Z,2.40
2022-09-12T12:10:42.225Z,2.70
2022-09-12T12:13:19.331Z,2.97
2022-09-12T12:15:53.065Z,3.00
2022-09-12T12:18:24.743Z,2.35
2022-09-12T12:20:52.380Z,5.35
2022-09-12T12:23:31.832Z,2.22
2022-09-12T12:26:00.753Z,1.90
2022-09-12T12:28:42.431Z,2.83
2022-09-12T12:31:10.585Z,4.10
2022-09-12T12:33:37.051Z,3.30
2022-09-12T12:36:28.359Z,1.40
2022-09-12T12:38:55.203Z,3.13
2022-09-12T12:41:21.736Z,2.28
2022-09-12T12:43:53.124Z,2.08
2022-09-12T12:46:24.667Z,2.78
2022-09-12T12:49:16.089Z,1.40
2022-09-12T12:51:57.412Z,1.73
2022-09-12T12:54:47.178Z,2.08
2022-09-12T12:57:23.245Z,2.13
2022-09-12T13:03:08.626Z,1.77
2022-09-12T13:05:39.779Z,2.65
2022-09-12T13:08:28.130Z,1.13
2022-09-12T13:10:59.702Z,2.33
2022-09-12T13:13:36.718Z,1.05
2022-09-12T13:16:03.675Z,4.78
2022-09-12T13:18:42.396Z,3.40
2022-09-12T13:21:13.201Z,1.73
2022-09-12T13:23:40.717Z,1.40
2022-09-12T13:26:12.825Z,1.25
2022-09-12T13:28:39.310Z,5.05
2022-09-12T13:31:20.768Z,1.80
2022-09-12T13:33:51.120Z,1.70
2022-09-12T13:36:23.598Z,1.08
2022-09-12T13:39:28.123Z,1.73
2022-09-12T13:42:05.070Z,2.00
2022-09-12T13:44:38.846Z,1.00
2022-09-12T13:47:05.584Z,1.90
2022-09-12T13:52:07.174Z,2.05
2022-09-12T13:54:37.899Z,1.77
2022-09-12T13:57:05.778Z,1.63
2022-09-12T13:59:42.746Z,1.80
2022-09-12T14:02:24.062Z,1.20
2022-09-12T14:05:09.200Z,1.95
2022-09-12T14:07:51.152Z,2.03
2022-09-12T14:10:23.358Z,3.80
2022-09-12T14:12:51.890Z,3.88
2022-09-12T14:15:24.573Z,1.50
2022-09-12T14:17:53.797Z,1.85
2022-09-12T14:20:23.316Z,1.63
2022-09-12T14:22:53.083Z,1.50
2022-09-12T14:25:22.593Z,2.25
2022-09-12T14:27:54.033Z,2.90
2022-09-12T14:30:28.027Z,1.70
2022-09-12T14:33:09.802Z,0.90
2022-09-12T14:36:09.993Z,2.13
2022-09-12T14:38:44.804Z,1.90
2022-09-12T14:41:15.011Z,1.73
2022-09-12T14:43:45.712Z,2.85
2022-09-12T14:46:30.541Z,2.72
2022-09-12T14:49:02.023Z,2.45
2022-09-12T14:51:33.940Z,3.05
2022-09-12T14:54:00.906Z,1.20
2022-09-12T14:56:53.261Z,1.45
2022-09-12T14:59:24.341Z,2.40
2022-09-12T15:01:50.804Z,4.32
2022-09-12T15:04:37.736Z,3.35
2022-09-12T15:07:31.357Z,2.28
2022-09-12T15:09:59.798Z,2.05
2022-09-12T15:12:26.807Z,1.88
2022-09-12T15:14:58.355Z,1.30
2022-09-12T15:17:24.973Z,1.30
2022-09-12T15:19:51.453Z,4.03
2022-09-12T15:22:18.756Z,2.10
2022-09-12T15:24:45.232Z,1.85
2022-09-12T15:27:12.553Z,3.22
2022-09-12T15:29:39.281Z,3.90
2022-09-12T15:34:33.323Z,3.45
2022-09-12T15:37:00.071Z,3.28
2022-09-12T15:41:54.165Z,2.63
2022-09-12T15:44:20.961Z,2.80
2022-09-12T15:49:14.005Z,2.40
2022-09-12T15:51:40.540Z,1.83
2022-09-12T15:54:07.149Z,1.58
2022-09-12T15:56:33.647Z,3.83
2022-09-12T15:59:00.394Z,2.95
2022-09-12T16:01:28.827Z,2.72
2022-09-12T16:03:55.923Z,3.00
2022-09-12T16:06:22.682Z,3.33
2022-09-12T16:11:22.468Z,4.05
2022-09-12T16:13:49.237Z,2.63
2022-09-12T16:18:42.329Z,1.83
2022-09-12T16:21:12.759Z,2.78
2022-09-12T16:23:45.523Z,1.63
2022-09-12T16:26:12.000Z,1.98
2022-09-12T16:28:38.911Z,5.53
2022-09-12T16:33:33.564Z,2.85
2022-09-12T16:38:31.558Z,4.45
2022-09-12T16:41:06.461Z,2.35
2022-09-12T16:43:34.812Z,3.13
2022-09-12T16:46:13.363Z,3.70
2022-09-12T16:48:52.157Z,4.82
2022-09-12T16:51:25.924Z,4.45
2022-09-12T16:53:52.807Z,7.85
2022-09-12T16:56:19.405Z,4.90
2022-09-12T16:58:46.566Z,3.22
2022-09-12T17:01:16.554Z,3.65
2022-09-12T17:03:43.621Z,4.18
2022-09-12T17:06:13.313Z,3.75
2022-09-12T17:08:46.714Z,3.78
2022-09-12T17:11:26.874Z,3.15
2022-09-12T17:14:11.343Z,3.20
2022-09-12T17:16:46.947Z,4.68
2022-09-12T17:19:19.437Z,3.47
2022-09-12T17:21:47.595Z,4.68
2022-09-12T17:24:14.593Z,2.78
2022-09-12T17:26:41.114Z,3.55
2022-09-12T17:29:07.945Z,2.42
2022-09-12T17:34:02.057Z,2.30
2022-09-12T17:36:29.549Z,2.03
2022-09-12T17:38:56.074Z,2.70
2022-09-12T17:41:25.978Z,3.25
2022-09-12T17:43:56.244Z,4.40
2022-09-12T17:46:31.046Z,5.43
2022-09-12T17:48:58.579Z,2.75
2022-09-12T17:51:28.923Z,2.53
2022-09-12T17:53:59.113Z,4.07
2022-09-12T17:56:27.941Z,4.88
2022-09-12T17:58:55.835Z,2.95
2022-09-12T18:01:41.174Z,3.03
2022-09-12T18:04:07.926Z,3.03
2022-09-12T18:06:34.653Z,4.43
2022-09-12T18:09:02.937Z,3.15
2022-09-12T18:11:30.004Z,2.70
2022-09-12T18:13:58.551Z,5.95
2022-09-12T18:16:26.234Z,3.83
2022-09-12T18:18:52.762Z,3.42
2022-09-12T18:21:19.872Z,10.40
2022-09-12T18:23:47.119Z,4.57
2022-09-12T18:26:14.108Z,12.57
2022-09-12T18:28:43.411Z,37.97
2022-09-12T18:31:15.559Z,34.50
2022-09-12T18:33:42.252Z,26.10
2022-09-12T18:36:10.857Z,19.60
2022-09-12T18:38:38.147Z,15.63
2022-09-12T18:41:10.197Z,11.27
2022-09-12T18:43:37.605Z,9.82
2022-09-12T18:46:08.970Z,7.30
2022-09-12T18:48:36.045Z,5.45
2022-09-12T18:51:23.168Z,5.72
2022-09-12T18:53:54.758Z,6.20
2022-09-12T18:56:23.201Z,5.43
2022-09-12T18:58:52.536Z,6.22
2022-09-12T19:01:27.796Z,5.53
2022-09-12T19:03:55.121Z,3.35
2022-09-12T19:06:24.957Z,7.72
2022-09-12T19:08:52.900Z,24.80
2022-09-12T19:11:21.197Z,22.60
2022-09-12T19:13:49.678Z,21.05
2022-09-12T19:16:18.812Z,19.65
2022-09-12T19:18:48.016Z,14.25
2022-09-12T19:21:19.585Z,13.60
2022-09-12T19:23:46.297Z,14.68
2022-09-12T19:26:14.851Z,12.23
2022-09-12T19:28:42.403Z,11.00
2022-09-12T19:31:15.431Z,17.10
2022-09-12T19:33:42.375Z,12.93
2022-09-12T19:36:33.609Z,11.23
2022-09-12T19:39:01.843Z,11.25
2022-09-12T19:41:28.288Z,6.78
2022-09-12T19:43:56.134Z,6.78
2022-09-12T19:46:24.575Z,4.00
2022-09-12T19:48:52.475Z,4.95
2022-09-12T19:51:20.632Z,5.53
2022-09-12T19:53:47.510Z,4.20
2022-09-12T19:56:15.043Z,4.25
2022-09-12T19:58:44.235Z,4.53
2022-09-12T20:01:25.726Z,4.82
2022-09-12T20:03:55.608Z,8.38
2022-09-12T20:06:22.570Z,3.08
2022-09-12T20:11:19.049Z,4.60
2022-09-12T20:13:46.247Z,7.30
2022-09-12T20:16:22.002Z,4.05
2022-09-12T20:18:53.695Z,4.03
2022-09-12T20:21:24.950Z,7.10
2022-09-12T20:23:51.387Z,4.65
2022-09-12T20:26:20.182Z,5.95
2022-09-12T20:28:47.089Z,4.28
2022-09-12T20:31:15.881Z,4.45
2022-09-12T20:33:42.881Z,4.40
2022-09-12T20:38:36.489Z,5.32
2022-09-12T20:41:04.859Z,5.25
2022-09-12T20:43:31.777Z,6.43
2022-09-12T20:48:32.161Z,6.18
2022-09-12T20:50:59.726Z,4.25
2022-09-12T20:53:26.405Z,4.60
2022-09-12T20:55:53.143Z,3.67
2022-09-12T20:58:20.491Z,4.40
2022-09-12T21:00:47.946Z,5.78
2022-09-12T21:03:15.899Z,5.18
2022-09-12T21:05:43.462Z,5.95
2022-09-12T21:08:10.646Z,5.05
2022-09-12T21:10:37.330Z,4.70
2022-09-12T21:13:03.726Z,6.50
2022-09-12T21:15:30.159Z,8.45
2022-09-12T21:17:57.743Z,9.15
2022-09-12T21:20:24.322Z,8.52
2022-09-12T21:22:50.846Z,6.22
2022-09-12T21:25:17.354Z,9.13
2022-09-12T21:27:43.749Z,9.90
2022-09-12T21:30:10.697Z,6.85
2022-09-12T21:35:05.198Z,5.82
2022-09-12T21:37:32.506Z,7.35
2022-09-12T21:39:59.534Z,8.18
2022-09-12T21:42:26.384Z,7.22
2022-09-12T21:44:52.914Z,5.95
2022-09-12T21:47:19.502Z,5.68
2022-09-12T21:49:45.983Z,5.82
2022-09-12T21:52:12.733Z,5.18
2022-09-12T21:54:39.209Z,8.25
2022-09-12T21:57:05.694Z,5.25
2022-09-12T21:59:32.127Z,4.93
2022-09-12T22:01:58.589Z,5.65
2022-09-12T22:04:26.292Z,5.93
2022-09-12T22:06:52.868Z,5.57
2022-09-12T22:09:19.502Z,4.10
2022-09-12T22:11:47.114Z,5.18
2022-09-12T22:14:13.711Z,4.85
2022-09-12T22:16:40.497Z,6.32
2022-09-12T22:19:06.973Z,4.78
2022-09-12T22:21:33.449Z,3.67
2022-09-12T22:24:18.308Z,4.75
2022-09-12T22:26:46.385Z,3.55
2022-09-12T22:29:15.635Z,4.47
2022-09-12T22:31:42.519Z,4.60
2022-09-12T22:34:09.010Z,5.40
2022-09-12T22:36:38.731Z,4.60
2022-09-12T22:39:06.130Z,3.95
2022-09-12T22:41:32.535Z,5.93
2022-09-12T22:43:59.176Z,3.88
2022-09-12T22:46:26.014Z,4.57
2022-09-12T22:48:52.594Z,4.00
2022-09-12T22:51:19.088Z,5.03
2022-09-12T22:53:45.519Z,3.88
2022-09-12T22:56:11.954Z,5.55
2022-09-12T22:58:38.653Z,3.95
2022-09-12T23:01:06.272Z,3.88
2022-09-12T23:03:33.337Z,3.55
2022-09-12T23:05:59.984Z,4.35
2022-09-12T23:08:29.758Z,3.85
2022-09-12T23:11:10.720Z,4.00
2022-09-12T23:13:37.988Z,4.93
2022-09-12T23:16:07.519Z,6.07
2022-09-12T23:18:37.397Z,4.18
2022-09-12T23:21:06.903Z,4.65
2022-09-12T23:23:34.078Z,6.15
2022-09-12T23:26:11.056Z,4.22
2022-09-12T23:28:39.118Z,6.82
2022-09-12T23:31:06.397Z,6.03
2022-09-12T23:33:33.447Z,4.20
2022-09-12T23:38:29.386Z,3.45
2022-09-12T23:40:56.352Z,4.22
2022-09-12T23:43:23.465Z,6.68
2022-09-12T23:45:50.109Z,3.50
2022-09-12T23:48:16.681Z,4.20
2022-09-12T23:50:44.941Z,4.15
2022-09-12T23:53:12.909Z,4.85
2022-09-12T23:55:39.418Z,5.40
2022-09-12T23:58:06.142Z,4.03
